Etusivu
METAR-TAF:

METAR-TAF

Lentoasemat :

San Juan, Puerto Rico, Yhdysvallat

Leveyspiiri: 18-27-24N, Pituuspiiri: 066-05-54W, korkeus merenpinnasta: 3 m

Tämänhetkinen sää

Tämä raportti tehtiin 12 tuntia ja 44 minuuttia sitten, kello 22.45 UTC
Tuuli 6 kn etelästä puuskistuen 15 kn:hen
Lämpötila 31°C
Kosteus 66%
Ilmanpaine 1013 hPa
Näkyvyys: 11.3 km
Hajanaisia pilviä 3000 ft:n korkeudessa
Hajanaisia pilviä 8000 ft:n korkeudessa
usvaa,

METAR: TJIG 202245Z 18006G15KT 7SM HZ SCT030 SCT080 31/24 A2990

Aika: 07:29 (11:29 UTC)


TAF: puuttuu

Säähavainnot ja -ennusteet yli 4000 lentoasemalta (METAR- ja TAF-raportit).

Käytössä olevat sääasemat on merkitty karttaan keltaisilla ja punaisilla pisteillä.

Aseta hiiri pisteen päälle nähdäksesi sääaseman nimen.

Klikkaa sitten nähdäksesi säähavainnot ja -ennusteet.

Kartan vaihtaminen: klikkaa mustalla rastilla varustettuja vihreitä pisteitä, niin voit zoomata sisään; viivalla varustettua vihreää pistettä, niin voit zoomata ulos tai vihreitä nuolia, niin pääset viereisille kartoille.


METAR-TAF: